F82 weather

Town & Country Airpark
Lubbock, Texas, United States

Public forecast

Using degrees Fahrenheit for public forecast. Weather courtesy of forecast.io.

Closest aviation weather report (METAR) to Town & Country Airpark

Closest report is Lubbock Preston Smith International Airport, 10.7 nm (19.8 km) N. Retrieved 2020/02/24 02:53 UTC (13 minutes ago):

KLBB 240253Z 27014KT 10SM FEW100 11/M03 A2982 RMK AO2 SLP081 60000 T01061028 51020

Closest aviation forecast (TAF) to Town & Country Airpark

Closest forecast is Lubbock Preston Smith International Airport, 10.7 nm (19.8 km) N. Retrieved 2020-02-24 00:22 UTC (3 hours ago):

TAF KLBB 232320Z 2400/2424 23025G40KT 6SM BLDU SCT100 FM240300 30018KT P6SM SKC